Time;durP1;ratioP1;P1;durP2;ratioP2;P2;SDS_P1;SDS_P2;PMS_P1;PMS_P2;Temp;Humidity;BMP_temperature;BMP_pressure;BME280_temperature;BME280_humidity;BME280_pressure;Samples;Min_cycle;Max_cycle;Signal;HPM_P1;HPM_P2
2021/11/06 00:01:47;;;;;;;56.28;17.05;;;5.50;99.90;;;;;;5034880;28;20256;-74
2021/11/06 00:04:34;;;;;;;189.48;20.17;;;5.50;99.90;;;;;;5036084;28;20208;-74
2021/11/06 00:07:19;;;;;;;153.90;16.48;;;5.40;99.90;;;;;;5025918;28;20217;-74
2021/11/06 00:10:07;;;;;;;53.17;14.30;;;5.20;99.90;;;;;;5031709;28;20295;-74
2021/11/06 00:12:53;;;;;;;20.90;13.75;;;5.20;99.90;;;;;;5028643;28;20205;-75
2021/11/06 00:15:39;;;;;;;33.95;14.85;;;5.30;99.90;;;;;;5032632;28;20581;-74
2021/11/06 00:18:25;;;;;;;46.17;14.10;;;5.30;99.90;;;;;;5026786;28;20229;-74
2021/11/06 00:21:12;;;;;;;19.05;13.88;;;5.40;99.90;;;;;;5030459;28;20202;-74
2021/11/06 00:23:58;;;;;;;22.95;15.35;;;5.50;99.90;;;;;;5029580;28;20206;-74
2021/11/06 00:26:43;;;;;;;22.38;15.10;;;5.60;99.90;;;;;;5033345;28;20328;-75
2021/11/06 00:29:29;;;;;;;39.30;13.95;;;5.60;99.90;;;;;;5028541;28;20221;-75
2021/11/06 00:32:14;;;;;;;22.30;14.55;;;5.70;99.90;;;;;;5035587;28;20207;-74
2021/11/06 00:35:00;;;;;;;21.23;14.88;;;5.80;99.90;;;;;;5031609;28;20206;-74
2021/11/06 00:37:47;;;;;;;26.55;15.63;;;5.90;99.90;;;;;;5033171;28;20357;-74
2021/11/06 00:40:33;;;;;;;19.55;14.30;;;5.80;99.90;;;;;;5031846;28;20202;-74
2021/11/06 00:43:20;;;;;;;21.00;15.48;;;5.80;99.90;;;;;;5030085;28;20213;-74
2021/11/06 00:46:05;;;;;;;41.92;14.13;;;5.80;99.90;;;;;;5032384;28;20198;-74
2021/11/06 00:48:51;;;;;;;23.30;14.38;;;5.80;99.90;;;;;;5028936;28;20224;-74
2021/11/06 00:51:37;;;;;;;23.55;14.07;;;5.70;99.90;;;;;;5033529;28;20272;-74
2021/11/06 00:54:24;;;;;;;78.03;14.57;;;5.70;99.90;;;;;;5028350;28;20209;-74
2021/11/06 00:57:10;;;;;;;31.02;13.05;;;5.60;99.90;;;;;;5030491;28;20690;-74
2021/11/06 00:59:56;;;;;;;37.08;13.00;;;5.50;99.90;;;;;;5035632;28;20280;-74
2021/11/06 01:02:41;;;;;;;44.13;14.70;;;5.40;99.90;;;;;;5029817;28;20678;-74
2021/11/06 01:05:27;;;;;;;15.82;11.35;;;5.40;99.90;;;;;;5029734;28;20340;-74
2021/11/06 01:08:13;;;;;;;21.60;13.73;;;5.40;99.90;;;;;;5025923;28;20315;-74
2021/11/06 01:10:59;;;;;;;20.30;12.43;;;5.40;99.90;;;;;;5030495;28;20213;-74
2021/11/06 01:13:45;;;;;;;19.08;13.32;;;5.50;99.90;;;;;;5029288;28;20582;-74
2021/11/06 01:16:31;;;;;;;18.02;12.52;;;5.50;99.90;;;;;;5028428;28;20253;-74
2021/11/06 01:19:17;;;;;;;18.10;12.88;;;5.60;99.90;;;;;;5029852;28;20594;-74
2021/11/06 01:22:03;;;;;;;21.45;12.52;;;5.60;99.90;;;;;;5028324;28;20221;-74
2021/11/06 01:24:48;;;;;;;17.00;11.23;;;5.60;99.90;;;;;;5034095;28;20215;-74
2021/11/06 01:27:35;;;;;;;33.40;12.80;;;5.50;99.90;;;;;;5026002;28;20682;-74
2021/11/06 01:30:21;;;;;;;19.05;11.68;;;5.50;99.90;;;;;;5022382;28;20271;-74
2021/11/06 01:33:07;;;;;;;15.80;12.63;;;5.40;99.90;;;;;;5027431;28;20206;-74
2021/11/06 01:35:52;;;;;;;24.40;13.73;;;5.20;99.90;;;;;;5030856;28;20336;-74
2021/11/06 01:38:38;;;;;;;18.30;11.77;;;5.20;99.90;;;;;;5032431;28;20271;-74
2021/11/06 01:41:24;;;;;;;31.45;12.40;;;5.20;99.90;;;;;;5030132;28;20205;-74
2021/11/06 01:44:10;;;;;;;23.73;15.30;;;5.30;99.90;;;;;;5037050;28;20571;-73
2021/11/06 01:46:56;;;;;;;22.92;15.73;;;5.30;99.90;;;;;;5028894;28;20323;-74
2021/11/06 01:49:42;;;;;;;31.38;17.00;;;5.40;99.90;;;;;;5040391;28;20276;-74
2021/11/06 01:52:28;;;;;;;23.25;15.70;;;5.40;99.90;;;;;;5034161;28;20213;-74
2021/11/06 01:55:14;;;;;;;23.48;15.65;;;5.50;99.90;;;;;;5028903;28;20217;-74
2021/11/06 01:58:00;;;;;;;22.23;15.38;;;5.60;99.90;;;;;;5037425;28;20701;-74
2021/11/06 02:00:47;;;;;;;24.83;16.05;;;5.60;99.90;;;;;;5036200;28;20774;-74
2021/11/06 02:03:34;;;;;;;22.83;16.35;;;5.70;99.90;;;;;;5043864;28;20331;-74
2021/11/06 02:06:19;;;;;;;23.25;15.15;;;5.70;99.90;;;;;;5037249;28;20202;-75
2021/11/06 02:09:05;;;;;;;33.00;16.70;;;5.50;99.90;;;;;;5028246;28;20233;-75
2021/11/06 02:11:51;;;;;;;51.67;18.00;;;5.60;99.90;;;;;;5034017;28;20345;-75
2021/11/06 02:14:37;;;;;;;29.33;18.20;;;5.70;99.90;;;;;;5023479;28;20673;-75
2021/11/06 02:17:25;;;;;;;31.63;17.67;;;5.60;99.90;;;;;;5030455;28;20667;-75
2021/11/06 02:20:11;;;;;;;29.60;18.55;;;5.70;99.90;;;;;;5034523;28;20209;-74
2021/11/06 02:22:58;;;;;;;30.48;17.55;;;5.70;99.90;;;;;;5023857;28;20362;-75
2021/11/06 02:25:44;;;;;;;27.45;18.08;;;5.70;99.90;;;;;;5033732;28;21234;-74
2021/11/06 02:28:30;;;;;;;22.13;15.48;;;5.80;99.90;;;;;;5032721;28;20589;-75
2021/11/06 02:31:16;;;;;;;29.83;19.52;;;5.70;99.90;;;;;;5032507;28;20424;-75
2021/11/06 02:34:02;;;;;;;28.20;18.00;;;5.70;99.90;;;;;;5034405;28;20686;-74
2021/11/06 02:36:48;;;;;;;31.67;16.85;;;5.60;99.90;;;;;;5040412;28;20272;-75
2021/11/06 02:39:35;;;;;;;26.35;15.80;;;5.40;99.90;;;;;;5032971;28;20264;-75
2021/11/06 02:42:21;;;;;;;22.27;15.23;;;5.30;99.90;;;;;;5032836;28;20205;-75
2021/11/06 02:45:09;;;;;;;21.75;15.55;;;5.30;99.90;;;;;;5017506;28;20217;-75
2021/11/06 02:47:55;;;;;;;20.40;14.60;;;5.30;99.90;;;;;;5026810;28;20373;-75
2021/11/06 02:50:40;;;;;;;22.25;15.82;;;5.30;99.90;;;;;;5033043;28;20228;-75
2021/11/06 02:53:26;;;;;;;21.13;14.57;;;5.30;99.90;;;;;;5034673;28;20563;-74
2021/11/06 02:56:13;;;;;;;22.10;15.75;;;5.30;99.90;;;;;;5033108;28;20205;-74
2021/11/06 02:58:59;;;;;;;19.55;14.50;;;5.40;99.90;;;;;;5023012;28;20229;-74
2021/11/06 03:01:45;;;;;;;26.35;14.57;;;5.30;99.90;;;;;;5032673;28;20209;-75
2021/11/06 03:04:36;;;;;;;20.60;13.85;;;5.40;99.90;;;;;;5033508;28;20197;-74
2021/11/06 03:07:22;;;;;;;19.92;13.73;;;5.30;99.90;;;;;;5031163;28;20229;-74
2021/11/06 03:10:10;;;;;;;17.70;13.02;;;5.50;99.90;;;;;;5034980;28;20214;-75
2021/11/06 03:12:58;;;;;;;17.35;12.55;;;5.50;99.90;;;;;;5031738;28;20226;-74
2021/11/06 03:15:43;;;;;;;22.17;12.80;;;5.30;99.90;;;;;;5028662;28;20520;-75
2021/11/06 03:18:29;;;;;;;14.90;11.88;;;5.30;99.90;;;;;;5028546;28;20225;-75
2021/11/06 03:21:17;;;;;;;16.85;11.02;;;5.30;99.90;;;;;;5032026;28;20661;-75
2021/11/06 03:24:04;;;;;;;18.10;10.85;;;5.40;99.90;;;;;;5027024;28;20201;-74
2021/11/06 03:26:50;;;;;;;18.10;11.15;;;5.40;99.90;;;;;;5025495;28;20201;-74
2021/11/06 03:29:37;;;;;;;14.93;11.07;;;5.50;99.90;;;;;;5030639;28;20244;-75
2021/11/06 03:32:23;;;;;;;15.65;11.30;;;5.50;99.90;;;;;;5031972;28;20257;-74
2021/11/06 03:35:09;;;;;;;14.93;11.27;;;5.50;99.90;;;;;;5025885;28;20295;-74
2021/11/06 03:37:55;;;;;;;15.13;10.50;;;5.50;99.90;;;;;;5029190;28;20233;-74
2021/11/06 03:40:40;;;;;;;14.90;11.15;;;5.40;99.90;;;;;;5032939;28;20208;-75
2021/11/06 03:43:26;;;;;;;15.35;10.65;;;5.40;99.90;;;;;;5032844;28;20717;-75
2021/11/06 03:46:13;;;;;;;15.52;11.25;;;5.40;99.90;;;;;;5033757;28;20209;-74
2021/11/06 03:48:59;;;;;;;15.35;11.50;;;5.30;99.90;;;;;;5030321;28;20272;-75
2021/11/06 03:51:45;;;;;;;18.17;9.77;;;5.30;99.90;;;;;;5035473;28;20814;-74
2021/11/06 03:54:30;;;;;;;20.65;10.48;;;5.10;99.90;;;;;;5034542;28;20225;-75
2021/11/06 03:57:16;;;;;;;13.88;9.90;;;5.00;99.90;;;;;;5034194;28;20205;-74
2021/11/06 04:00:02;;;;;;;21.27;11.25;;;4.90;99.90;;;;;;5028949;28;20248;-74
2021/11/06 04:02:50;;;;;;;12.90;10.70;;;5.00;99.90;;;;;;5037973;28;20681;-74
2021/11/06 04:05:35;;;;;;;13.43;9.95;;;4.90;99.90;;;;;;5035940;28;20221;-74
2021/11/06 04:08:21;;;;;;;13.80;11.40;;;4.90;99.90;;;;;;5034642;28;20249;-74
2021/11/06 04:11:07;;;;;;;13.85;10.60;;;4.90;99.90;;;;;;5030999;28;20384;-74
2021/11/06 04:13:52;;;;;;;13.63;10.48;;;5.10;99.90;;;;;;5027231;28;20327;-75
2021/11/06 04:16:38;;;;;;;16.40;11.50;;;5.10;99.90;;;;;;5033769;28;20201;-74
2021/11/06 04:19:25;;;;;;;18.05;11.95;;;5.10;99.90;;;;;;5028668;28;20218;-75
2021/11/06 04:22:11;;;;;;;17.80;11.20;;;5.20;99.90;;;;;;5032444;28;20201;-75
2021/11/06 04:24:57;;;;;;;29.65;14.18;;;5.30;99.90;;;;;;5031310;28;20201;-75
2021/11/06 04:27:42;;;;;;;18.58;12.52;;;5.20;99.90;;;;;;5029967;28;20225;-75
2021/11/06 04:30:28;;;;;;;18.95;12.80;;;5.10;99.90;;;;;;5035624;28;20209;-75
2021/11/06 04:33:13;;;;;;;20.83;12.77;;;5.10;99.90;;;;;;5031294;28;20213;-75
2021/11/06 04:36:02;;;;;;;21.30;13.10;;;5.20;99.90;;;;;;5034713;28;20777;-75
2021/11/06 04:38:47;;;;;;;28.77;14.88;;;5.20;99.90;;;;;;5031044;28;20225;-75
2021/11/06 04:41:33;;;;;;;40.10;15.55;;;5.20;99.90;;;;;;5033827;28;20236;-74
2021/11/06 04:44:19;;;;;;;21.67;15.30;;;5.10;99.90;;;;;;5028132;28;20200;-74
2021/11/06 04:47:04;;;;;;;19.48;13.05;;;5.10;99.90;;;;;;5029380;28;20697;-74
2021/11/06 04:49:50;;;;;;;26.48;15.07;;;5.20;99.90;;;;;;5030385;28;20642;-74
2021/11/06 04:52:39;;;;;;;105.03;15.80;;;5.20;99.90;;;;;;5031255;28;20218;-75
2021/11/06 04:55:25;;;;;;;21.30;14.90;;;5.10;99.90;;;;;;5030897;28;20208;-75
2021/11/06 04:58:11;;;;;;;111.45;17.70;;;5.10;99.90;;;;;;5033036;28;20298;-74
2021/11/06 05:00:57;;;;;;;21.85;14.32;;;5.10;99.90;;;;;;5032788;28;20205;-74
2021/11/06 05:03:42;;;;;;;27.90;14.35;;;5.10;99.90;;;;;;5039137;28;20486;-75
2021/11/06 05:06:30;;;;;;;46.67;14.60;;;5.20;99.90;;;;;;5027233;28;20341;-74
2021/11/06 05:09:18;;;;;;;31.73;14.52;;;5.30;99.90;;;;;;5029507;28;20276;-74
2021/11/06 05:12:04;;;;;;;25.15;14.75;;;5.30;99.90;;;;;;5025240;28;20237;-73
2021/11/06 05:14:50;;;;;;;23.55;16.15;;;5.30;99.90;;;;;;5029560;28;20257;-74
2021/11/06 05:17:36;;;;;;;38.45;13.68;;;5.30;99.90;;;;;;5033547;28;20213;-74
2021/11/06 05:20:23;;;;;;;23.98;14.73;;;5.40;99.90;;;;;;5026434;28;20214;-74
2021/11/06 05:23:08;;;;;;;34.88;14.40;;;5.40;99.90;;;;;;5028593;28;20213;-74
2021/11/06 05:25:55;;;;;;;20.48;14.23;;;5.40;99.90;;;;;;5025350;28;20328;-74
2021/11/06 05:28:42;;;;;;;20.50;13.25;;;5.40;99.90;;;;;;5030574;28;20730;-74
2021/11/06 05:31:27;;;;;;;18.65;13.80;;;5.50;99.90;;;;;;5032929;28;20229;-74
2021/11/06 05:34:13;;;;;;;20.40;13.27;;;5.60;99.90;;;;;;5026252;28;20201;-74
2021/11/06 05:36:58;;;;;;;18.02;12.65;;;5.60;99.90;;;;;;5028139;28;20251;-74
2021/11/06 05:39:44;;;;;;;14.90;11.82;;;5.60;99.90;;;;;;5033934;28;20233;-74
2021/11/06 05:42:32;;;;;;;18.70;13.00;;;5.50;99.90;;;;;;5028852;28;20197;-74
2021/11/06 05:45:18;;;;;;;15.73;11.32;;;5.50;99.90;;;;;;5030665;28;21544;-75
2021/11/06 05:48:04;;;;;;;15.48;10.90;;;5.60;99.90;;;;;;5024184;28;20287;-75
2021/11/06 05:50:50;;;;;;;15.95;11.68;;;5.60;99.90;;;;;;5027084;28;20197;-74
2021/11/06 05:53:36;;;;;;;16.13;12.75;;;5.60;99.90;;;;;;5029058;28;20262;-75
2021/11/06 05:56:22;;;;;;;19.80;11.88;;;5.50;99.90;;;;;;5027106;28;20264;-74
2021/11/06 05:59:09;;;;;;;16.45;10.82;;;5.50;99.90;;;;;;5026656;28;20364;-74
2021/11/06 06:01:55;;;;;;;16.70;12.55;;;5.50;99.90;;;;;;5030589;28;20201;-74
2021/11/06 06:04:41;;;;;;;15.60;11.35;;;5.50;99.90;;;;;;5035205;28;20675;-75
2021/11/06 06:07:26;;;;;;;15.38;10.50;;;5.60;99.90;;;;;;5030558;28;20300;-75
2021/11/06 06:10:15;;;;;;;16.60;12.00;;;5.70;99.90;;;;;;5026808;28;20730;-74
2021/11/06 06:13:00;;;;;;;15.38;11.10;;;5.60;99.90;;;;;;5027821;28;20332;-75
2021/11/06 06:15:48;;;;;;;13.93;10.52;;;5.50;99.90;;;;;;5037537;28;20201;-75
2021/11/06 06:18:33;;;;;;;12.70;10.15;;;5.40;99.90;;;;;;5031048;28;20245;-75
2021/11/06 06:21:18;;;;;;;23.25;12.43;;;5.40;99.90;;;;;;5034645;28;20206;-75
2021/11/06 06:24:05;;;;;;;15.55;10.77;;;5.50;99.90;;;;;;5028877;28;20206;-74
2021/11/06 06:26:51;;;;;;;14.63;10.45;;;5.50;99.90;;;;;;5028663;28;20213;-74
2021/11/06 06:29:37;;;;;;;21.10;10.50;;;5.50;99.90;;;;;;5034659;28;20324;-76
2021/11/06 06:32:24;;;;;;;15.40;11.40;;;5.50;99.90;;;;;;5026958;28;20222;-74
2021/11/06 06:35:10;;;;;;;15.27;11.48;;;5.60;99.90;;;;;;5033917;28;20205;-75
2021/11/06 06:37:57;;;;;;;15.15;9.77;;;5.60;99.90;;;;;;5029758;28;20713;-74
2021/11/06 06:40:43;;;;;;;17.70;10.32;;;5.60;99.90;;;;;;5039370;28;20213;-75
2021/11/06 06:43:28;;;;;;;16.35;9.90;;;5.70;99.90;;;;;;5038352;28;20225;-74
2021/11/06 06:46:14;;;;;;;18.05;12.23;;;5.60;99.90;;;;;;5035822;28;20565;-74
2021/11/06 06:49:01;;;;;;;15.73;12.65;;;5.60;99.90;;;;;;5030009;28;20328;-74
2021/11/06 06:51:47;;;;;;;13.13;10.32;;;5.50;99.90;;;;;;5035822;28;20221;-74
2021/11/06 06:54:33;;;;;;;15.98;11.40;;;5.50;99.90;;;;;;5032144;28;20201;-75
2021/11/06 06:57:18;;;;;;;22.35;13.50;;;5.50;99.90;;;;;;5031352;28;20272;-75
2021/11/06 07:00:06;;;;;;;19.75;13.52;;;5.60;99.90;;;;;;5033381;28;20826;-74
2021/11/06 07:02:52;;;;;;;17.98;14.95;;;5.70;99.90;;;;;;5038821;28;20222;-74
2021/11/06 07:05:39;;;;;;;20.23;14.60;;;5.70;99.90;;;;;;5032354;28;20201;-74
2021/11/06 07:08:25;;;;;;;18.88;15.55;;;5.80;99.90;;;;;;5034293;28;20316;-75
2021/11/06 07:11:10;;;;;;;20.48;15.18;;;5.80;99.90;;;;;;5026953;28;20210;-74
2021/11/06 07:13:56;;;;;;;19.67;15.30;;;5.80;99.90;;;;;;5028875;28;20201;-74
2021/11/06 07:16:42;;;;;;;18.65;14.57;;;5.80;99.90;;;;;;5033383;28;20690;-75
2021/11/06 07:19:28;;;;;;;17.60;13.25;;;5.90;99.90;;;;;;5030032;28;20225;-74
2021/11/06 07:22:15;;;;;;;17.20;12.73;;;5.90;99.90;;;;;;5031083;28;20220;-74
2021/11/06 07:25:00;;;;;;;17.48;12.05;;;5.90;99.90;;;;;;5026612;28;20415;-74
2021/11/06 07:27:46;;;;;;;18.20;12.32;;;5.90;99.90;;;;;;5032474;28;20217;-74
2021/11/06 07:30:31;;;;;;;16.63;13.07;;;5.90;99.90;;;;;;5029910;28;20655;-75
2021/11/06 07:33:17;;;;;;;15.15;12.70;;;5.90;99.90;;;;;;5031861;28;20221;-74
2021/11/06 07:36:03;;;;;;;16.88;12.60;;;6.00;99.90;;;;;;5032996;28;20248;-74
2021/11/06 07:38:52;;;;;;;19.48;15.18;;;5.90;99.90;;;;;;5031463;28;20230;-74
2021/11/06 07:41:38;;;;;;;17.02;12.90;;;5.90;99.90;;;;;;5033083;28;20272;-75
2021/11/06 07:44:24;;;;;;;15.68;11.88;;;5.90;99.90;;;;;;5031903;28;20569;-74
2021/11/06 07:47:10;;;;;;;16.63;11.70;;;6.00;99.90;;;;;;5031433;28;20201;-74
2021/11/06 07:49:55;;;;;;;14.75;12.68;;;6.00;99.90;;;;;;5031867;28;20302;-74
2021/11/06 07:52:41;;;;;;;18.98;12.60;;;6.10;99.90;;;;;;5034996;28;20234;-74
2021/11/06 07:55:28;;;;;;;16.40;12.18;;;6.20;99.90;;;;;;5030047;28;20209;-74
2021/11/06 07:58:14;;;;;;;16.73;11.88;;;6.20;99.90;;;;;;5030613;28;20307;-75
2021/11/06 08:01:00;;;;;;;18.40;12.57;;;6.30;99.90;;;;;;5029387;28;20205;-74
2021/11/06 08:03:46;;;;;;;14.85;10.02;;;6.30;99.90;;;;;;5033313;28;20205;-74
2021/11/06 08:06:32;;;;;;;11.50;8.80;;;6.30;99.90;;;;;;5035609;28;20281;-74
2021/11/06 08:09:18;;;;;;;14.18;10.15;;;6.30;99.90;;;;;;5028948;28;20233;-75
2021/11/06 08:12:06;;;;;;;18.55;11.95;;;6.40;99.90;;;;;;5027630;28;20353;-74
2021/11/06 08:14:52;;;;;;;18.57;12.47;;;6.50;99.90;;;;;;5033300;28;20282;-74
2021/11/06 08:17:37;;;;;;;17.00;12.60;;;6.60;99.90;;;;;;5031584;28;20411;-74
2021/11/06 08:20:23;;;;;;;16.10;12.32;;;6.60;99.90;;;;;;5027778;28;20221;-74
2021/11/06 08:23:09;;;;;;;20.98;14.15;;;6.70;99.90;;;;;;5028558;28;20206;-74
2021/11/06 08:25:55;;;;;;;18.53;12.03;;;6.80;99.90;;;;;;5034416;28;20278;-74
2021/11/06 08:28:42;;;;;;;19.80;12.38;;;6.90;99.90;;;;;;5029890;28;20530;-72
2021/11/06 08:31:28;;;;;;;18.15;11.90;;;7.00;99.90;;;;;;5028143;28;20205;-72
2021/11/06 08:34:14;;;;;;;18.67;11.32;;;7.10;99.90;;;;;;5026595;28;20703;-72
2021/11/06 08:37:00;;;;;;;17.17;12.90;;;7.10;99.90;;;;;;5026845;28;20224;-73
2021/11/06 08:39:46;;;;;;;17.73;11.93;;;7.10;99.90;;;;;;5029538;28;20296;-73
2021/11/06 08:42:31;;;;;;;18.70;12.32;;;7.10;99.90;;;;;;5030514;28;20292;-72
2021/11/06 08:45:18;;;;;;;19.05;13.35;;;7.10;99.90;;;;;;5030457;28;20220;-72
2021/11/06 08:48:04;;;;;;;21.40;13.20;;;7.20;99.90;;;;;;5022245;28;20233;-73
2021/11/06 08:50:50;;;;;;;22.95;14.75;;;7.10;99.90;;;;;;5029245;28;20217;-72
2021/11/06 08:53:36;;;;;;;19.50;13.77;;;7.10;99.90;;;;;;5027933;28;20360;-72
2021/11/06 08:56:24;;;;;;;24.75;13.30;;;7.10;99.90;;;;;;5032652;28;20248;-73
2021/11/06 08:59:11;;;;;;;21.42;13.30;;;7.20;99.90;;;;;;5028607;28;20356;-73
2021/11/06 09:01:58;;;;;;;21.10;13.13;;;7.20;99.90;;;;;;5023280;28;20288;-73
2021/11/06 09:04:44;;;;;;;21.40;13.13;;;7.30;99.90;;;;;;5029776;28;20418;-73
2021/11/06 09:07:32;;;;;;;19.17;13.75;;;7.30;99.90;;;;;;5028331;28;20225;-73
2021/11/06 09:10:20;;;;;;;16.13;11.60;;;7.30;99.90;;;;;;5020991;28;20226;-72
2021/11/06 09:13:05;;;;;;;18.88;13.05;;;7.20;99.90;;;;;;5024049;28;21072;-72
2021/11/06 09:15:51;;;;;;;20.47;12.83;;;7.20;99.90;;;;;;5034542;28;20708;-73
2021/11/06 09:18:38;;;;;;;18.85;12.75;;;7.30;99.90;;;;;;5029370;28;20464;-74
2021/11/06 09:21:25;;;;;;;17.38;12.82;;;7.30;99.90;;;;;;5033208;28;20675;-74
2021/11/06 09:24:11;;;;;;;19.40;13.00;;;7.30;99.90;;;;;;5031208;28;20567;-74
2021/11/06 09:26:57;;;;;;;19.10;14.37;;;7.30;99.90;;;;;;5031977;28;20452;-73
2021/11/06 09:29:43;;;;;;;17.48;11.95;;;7.30;99.90;;;;;;5023654;28;20945;-76
2021/11/06 09:32:28;;;;;;;19.83;13.00;;;7.50;99.90;;;;;;5028459;28;20221;-75
2021/11/06 09:35:16;;;;;;;22.30;14.40;;;7.60;99.90;;;;;;5028204;28;20567;-75
2021/11/06 09:38:01;;;;;;;19.20;13.35;;;7.70;99.90;;;;;;5039488;28;20598;-75
2021/11/06 09:40:47;;;;;;;19.08;14.63;;;7.90;99.90;;;;;;5034357;28;20710;-75
2021/11/06 09:43:33;;;;;;;18.63;13.87;;;7.90;99.90;;;;;;5036515;28;20208;-76
2021/11/06 09:46:18;;;;;;;22.30;14.20;;;8.10;99.90;;;;;;5018321;28;20467;-76
2021/11/06 09:49:04;;;;;;;18.47;14.00;;;8.30;99.90;;;;;;5023888;28;20611;-75
2021/11/06 09:51:53;;;;;;;21.53;15.07;;;8.50;99.90;;;;;;5032621;28;20443;-78
2021/11/06 09:54:39;;;;;;;30.30;17.87;;;8.60;99.90;;;;;;5023234;28;20436;-78
2021/11/06 09:57:25;;;;;;;29.87;19.10;;;8.70;99.90;;;;;;5031394;28;20923;-78
2021/11/06 10:00:12;;;;;;;27.47;17.93;;;8.60;99.90;;;;;;5026108;28;20429;-77
2021/11/06 10:02:57;;;;;;;26.87;19.30;;;8.70;99.90;;;;;;5031148;28;20548;-77
2021/11/06 10:05:47;;;;;;;30.80;20.57;;;8.70;99.90;;;;;;5031479;28;21039;-78
2021/11/06 10:08:36;;;;;;;29.80;20.77;;;8.70;99.90;;;;;;5031382;28;20464;-78
2021/11/06 10:11:23;;;;;;;32.33;21.20;;;8.80;99.90;;;;;;5034622;28;20555;-79
2021/11/06 10:14:11;;;;;;;30.37;21.07;;;8.60;99.90;;;;;;5034754;28;20479;-78
2021/11/06 10:16:58;;;;;;;30.73;21.33;;;8.60;99.90;;;;;;5036385;28;20497;-78
2021/11/06 10:19:49;;;;;;;31.67;19.97;;;8.70;99.90;;;;;;5036563;28;20496;-77
2021/11/06 10:22:35;;;;;;;33.80;20.77;;;8.70;99.90;;;;;;5035767;28;20443;-78
2021/11/06 10:25:23;;;;;;;32.10;20.37;;;8.80;99.90;;;;;;5034506;28;20483;-78
2021/11/06 10:28:12;;;;;;;32.97;20.87;;;8.80;99.90;;;;;;5033240;28;20430;-82
2021/11/06 10:31:03;;;;;;;32.77;21.53;;;8.60;99.90;;;;;;5031335;28;20563;-77
2021/11/06 10:33:50;;;;;;;34.00;21.67;;;8.60;99.90;;;;;;5042677;28;20479;-77
2021/11/06 10:36:36;;;;;;;36.17;23.33;;;8.50;99.90;;;;;;5030480;28;20556;-73
2021/11/06 10:39:22;;;;;;;33.97;23.27;;;8.40;99.90;;;;;;5030955;28;20511;-74
2021/11/06 10:42:15;;;;;;;37.13;24.20;;;8.60;99.90;;;;;;5033244;28;20555;-73
2021/11/06 10:45:13;;;;;;;37.77;23.23;;;8.80;99.90;;;;;;5032385;28;20954;-73
2021/11/06 10:48:03;;;;;;;29.80;19.50;;;8.80;99.90;;;;;;5039303;28;20418;-72
2021/11/06 10:50:57;;;;;;;28.00;18.70;;;8.90;99.90;;;;;;5031803;28;20447;-72
2021/11/06 10:53:45;;;;;;;36.23;22.20;;;8.90;99.90;;;;;;5033949;28;20468;-73
2021/11/06 10:56:34;;;;;;;30.60;21.20;;;9.00;99.90;;;;;;5028517;28;20479;-72
2021/11/06 10:59:23;;;;;;;30.00;20.67;;;9.10;99.90;;;;;;5028559;28;21284;-73
2021/11/06 11:02:23;;;;;;;30.70;20.13;;;9.40;99.90;;;;;;5029882;28;20494;-74
2021/11/06 11:05:35;;;;;;;33.60;18.90;;;9.70;99.90;;;;;;5027735;28;20547;-75
2021/11/06 11:08:21;;;;;;;23.00;17.60;;;9.90;99.90;;;;;;5032101;28;20817;-76
2021/11/06 11:11:08;;;;;;;25.77;17.20;;;10.00;99.90;;;;;;5032631;28;20416;-76
2021/11/06 11:13:56;;;;;;;24.20;16.63;;;10.00;99.90;;;;;;5030191;28;20443;-76
2021/11/06 11:16:53;;;;;;;25.23;17.57;;;9.90;99.90;;;;;;5033659;28;20496;-76
2021/11/06 11:19:41;;;;;;;21.70;16.47;;;9.90;99.90;;;;;;5038400;28;20423;-76
2021/11/06 11:22:29;;;;;;;27.87;18.43;;;9.90;99.90;;;;;;5030631;28;20420;-75
2021/11/06 11:25:15;;;;;;;27.50;18.57;;;9.90;99.90;;;;;;5033322;28;20428;-76
2021/11/06 11:28:01;;;;;;;25.03;17.30;;;9.90;99.90;;;;;;5033396;28;20476;-76
2021/11/06 11:30:47;;;;;;;31.80;19.97;;;9.90;99.90;;;;;;5037702;28;20808;-76
2021/11/06 11:33:37;;;;;;;33.10;20.57;;;9.90;99.90;;;;;;5041868;28;20476;-76
2021/11/06 11:36:25;;;;;;;39.27;21.17;;;9.90;99.90;;;;;;5030720;28;20486;-76
2021/11/06 11:39:15;;;;;;;41.20;22.37;;;9.90;99.90;;;;;;5034795;28;20527;-75
2021/11/06 11:42:35;;;;;;;46.73;26.13;;;9.90;99.90;;;;;;5033539;28;20507;-75
2021/11/06 11:45:34;;;;;;;41.17;25.73;;;9.90;99.90;;;;;;5029997;28;20437;-76
2021/11/06 11:48:23;;;;;;;46.10;28.80;;;10.10;99.90;;;;;;5027339;28;20450;-73
2021/11/06 11:51:10;;;;;;;36.20;23.47;;;10.30;99.90;;;;;;5029979;28;20451;-74
2021/11/06 11:54:00;;;;;;;41.20;25.47;;;10.60;99.90;;;;;;5033224;28;20468;-74
2021/11/06 11:56:46;;;;;;;37.47;22.97;;;10.80;99.90;;;;;;5037106;28;21003;-74
2021/11/06 11:59:33;;;;;;;37.00;24.23;;;11.00;99.90;;;;;;5027807;28;20447;-74
2021/11/06 12:02:21;;;;;;;39.43;24.50;;;11.20;99.90;;;;;;5031743;28;20410;-75
2021/11/06 12:05:33;;;;;;;34.90;23.10;;;11.20;99.90;;;;;;5024497;28;20453;-75
2021/11/06 12:08:35;;;;;;;37.77;25.13;;;11.10;99.90;;;;;;5027126;28;20475;-73
2021/11/06 12:11:30;;;;;;;43.67;25.43;;;11.10;99.90;;;;;;5027664;28;20419;-75
2021/11/06 12:14:21;;;;;;;39.97;26.63;;;11.30;99.90;;;;;;5029396;28;20460;-75
2021/11/06 12:17:08;;;;;;;41.20;27.53;;;11.20;99.90;;;;;;5032484;28;20478;-75
2021/11/06 12:19:54;;;;;;;50.73;28.37;;;11.10;99.90;;;;;;5031216;28;20508;-75
2021/11/06 12:22:40;;;;;;;44.90;26.97;;;10.80;99.90;;;;;;5029910;28;20423;-75
2021/11/06 12:25:27;;;;;;;45.90;27.10;;;10.80;99.90;;;;;;5031053;28;20430;-75
2021/11/06 12:28:21;;;;;;;33.87;21.23;;;11.00;99.90;;;;;;5027552;28;20798;-75
2021/11/06 12:31:26;;;;;;;27.90;18.67;;;11.10;99.90;;;;;;5030205;28;20819;-75
2021/11/06 12:34:32;;;;;;;26.10;16.30;;;11.10;99.90;;;;;;5030481;28;20451;-75
2021/11/06 12:37:50;;;;;;;27.70;17.20;;;11.20;99.90;;;;;;5032924;28;20455;-76
2021/11/06 12:40:47;;;;;;;29.97;19.00;;;11.70;99.90;;;;;;5029119;28;20448;-75
2021/11/06 12:43:33;;;;;;;28.20;15.37;;;11.90;99.90;;;;;;5032214;28;20411;-75
2021/11/06 12:46:23;;;;;;;25.03;15.10;;;12.30;99.90;;;;;;5022860;28;20427;-75
2021/11/06 12:49:09;;;;;;;19.33;11.67;;;12.70;99.90;;;;;;5028762;28;20460;-75
2021/11/06 12:51:55;;;;;;;17.27;11.50;;;13.10;99.90;;;;;;5033627;28;20451;-75
2021/11/06 12:54:41;;;;;;;16.97;10.63;;;13.30;99.90;;;;;;5032487;28;20451;-75
2021/11/06 12:57:34;;;;;;;13.60;9.57;;;13.80;99.90;;;;;;5025864;28;20439;-75
2021/11/06 13:00:29;;;;;;;14.20;9.97;;;13.60;99.90;;;;;;5033570;28;20610;-75
2021/11/06 13:03:15;;;;;;;24.03;13.40;;;13.50;99.90;;;;;;5029759;28;20419;-75
2021/11/06 13:06:00;;;;;;;19.10;11.77;;;13.70;99.90;;;;;;5030124;28;20440;-75
2021/11/06 13:09:11;;;;;;;16.83;11.63;;;13.80;99.90;;;;;;5031573;28;20453;-75
2021/11/06 13:12:08;;;;;;;17.77;11.20;;;13.50;99.90;;;;;;5028145;28;20452;-75
2021/11/06 13:15:00;;;;;;;17.03;11.47;;;13.40;99.90;;;;;;5031581;28;21067;-75
2021/11/06 13:17:46;;;;;;;18.73;11.40;;;13.50;99.90;;;;;;5028888;28;20424;-75
2021/11/06 13:20:32;;;;;;;19.93;11.50;;;13.60;99.90;;;;;;5030677;28;20573;-75
2021/11/06 13:23:17;;;;;;;15.37;10.87;;;14.00;99.90;;;;;;5026407;28;20499;-75
2021/11/06 13:26:05;;;;;;;17.90;12.77;;;14.10;99.90;;;;;;5026750;28;20982;-73
2021/11/06 13:28:54;;;;;;;17.83;13.17;;;14.00;99.90;;;;;;5032123;28;20463;-73
2021/11/06 13:31:41;;;;;;;14.43;10.90;;;14.00;99.90;;;;;;5032605;28;20599;-76
2021/11/06 13:34:37;;;;;;;18.80;12.23;;;14.10;99.90;;;;;;5033886;28;20619;-76
2021/11/06 13:37:23;;;;;;;21.13;11.40;;;13.80;99.90;;;;;;5030975;28;20821;-75
2021/11/06 13:40:10;;;;;;;12.87;9.80;;;13.80;99.90;;;;;;5029817;28;20875;-75
2021/11/06 13:43:12;;;;;;;16.77;10.90;;;13.70;99.90;;;;;;5027125;28;20448;-76
2021/11/06 13:46:06;;;;;;;14.83;10.57;;;13.80;99.90;;;;;;5035980;28;20417;-76
2021/11/06 13:49:06;;;;;;;17.07;12.47;;;13.90;99.90;;;;;;5035882;28;20455;-75
2021/11/06 13:51:58;;;;;;;16.30;13.10;;;13.50;99.90;;;;;;5032487;28;20446;-74
2021/11/06 13:54:46;;;;;;;16.03;11.73;;;13.20;99.90;;;;;;5037081;28;20533;-75
2021/11/06 13:57:32;;;;;;;16.33;11.10;;;12.80;99.90;;;;;;5036066;28;20899;-75
2021/11/06 14:00:19;;;;;;;18.57;11.40;;;12.50;99.90;;;;;;5033911;28;20929;-75
2021/11/06 14:03:05;;;;;;;17.57;11.23;;;12.40;99.90;;;;;;5033510;28;20418;-75
2021/11/06 14:05:53;;;;;;;17.53;12.17;;;12.20;99.90;;;;;;5036042;28;20440;-75
2021/11/06 14:08:38;;;;;;;14.80;10.73;;;11.90;99.90;;;;;;5035090;28;21009;-75
2021/11/06 14:11:24;;;;;;;21.30;12.77;;;11.70;99.90;;;;;;5033426;28;20551;-75
2021/11/06 14:14:09;;;;;;;21.47;13.07;;;11.50;99.90;;;;;;5034712;28;20467;-75
2021/11/06 14:17:06;;;;;;;16.43;12.33;;;11.40;99.90;;;;;;5030761;28;20444;-75
2021/11/06 14:19:55;;;;;;;17.00;12.20;;;11.30;99.90;;;;;;5037239;28;20440;-75